Latest Coastal Weather Observations for Evans Head

IDN60701

Issued at 10:02 pm EST Thursday 25 April 2024 (issued every 10 minutes, with the page automatically refreshed every 10 minutes)

About coastal observations | Map of coastal stations | Coastal observations for NSW | Marine services | Other Formats
Station Details ID: 058212 Name: EVANS HEAD RAAF BOMBING RANGE AWS Lat: -29.18 Lon: 153.40 Height: 62.5 m
Data from the previous 72 hours. | See also: Recent months at Evans Head
Date/Time
EST
Wind Sea
Height
m
Swell Vis
km
Cloud Weather Temp
°C
Press
MSL
hPa
Rain since
9am
mm
Dir  Spd
kts
Gust
kts
Height
m
Period
s
Dir
25/10:00pm SE 8 12 - - - - - - - 20.7 1018.0 0.0
25/09:30pm SE 13 18 - - - - - - - 21.0 1017.9 0.0
25/09:00pm SSE 12 16 - - - - - - - 21.1 1017.6 0.0
25/08:30pm SSE 12 16 - - - - - - - 21.1 1017.3 0.0
25/08:00pm SSE 11 17 - - - - - - - 20.8 1017.4 0.0
25/07:30pm SSE 12 17 - - - - - - - 21.0 1017.1 0.0
25/07:00pm SSE 13 19 - - - - - - - 20.9 1017.0 0.0
25/06:30pm SSE 13 17 - - - - - - - 21.0 1016.8 0.0
25/06:00pm SSE 13 18 - - - - - - - 21.0 1016.6 0.0
25/05:30pm SSE 14 19 - - - - - - - 20.9 1016.3 0.0
25/05:00pm SSE 11 18 - - - - - - - 20.7 1016.1 0.0
25/04:30pm SSE 13 17 - - - - - - - 21.0 1016.0 0.0
25/04:00pm SSE 13 19 - - - - - - - 21.0 1015.7 0.0
25/03:30pm SSE 14 21 - - - - - - - 21.5 1015.6 0.0
25/03:00pm SSE 16 23 - - - - - - - 21.9 1015.6 0.0
25/02:30pm SSE 15 21 - - - - - - - 21.4 1015.6 0.0
25/02:00pm SSE 15 21 - - - - - - - 22.9 1015.7 0.0
25/01:30pm S 14 20 - - - - - - - 22.6 1015.7 0.0
25/01:00pm S 14 22 - - - - - - - 22.3 1015.9 0.0
25/12:30pm S 17 24 - - - - - - - 22.3 1016.1 0.0
25/12:00pm S 18 25 - - - - - - - 22.1 1016.5 0.0
25/11:43am S 18 28 - - - - - - - 22.2 1016.7 0.0
25/11:30am S 19 27 - - - - - - - 21.9 1016.8 0.0
25/11:06am S 15 25 - - - - - - - 21.8 1016.9 0.0
25/11:00am S 16 23 - - - - - - - 22.0 1017.0 0.0
25/10:32am S 15 25 - - - - - - - 22.0 1017.2 0.0
25/10:30am S 16 25 - - - - - - - 21.9 1017.2 0.0
25/10:25am S 15 25 - - - - - - - 21.8 1017.1 0.0
25/10:00am S 13 21 - - - - - - - 22.0 1017.4 0.0
25/09:30am S 12 17 - - - - - - - 22.1 1017.2 0.0
25/09:00am S 11 17 - - - - - - - 21.8 1017.3 0.0
25/08:30am SSW 10 16 - - - - - - - 21.4 1017.1 0.0
25/08:00am SW 9 16 - - - - - - - 20.1 1016.9 0.0
25/07:30am SW 9 14 - - - - - - - 18.4 1016.7 0.0
25/07:00am WSW 8 11 - - - - - - - 17.2 1016.3 0.0
25/06:30am WSW 6 9 - - - - - - - 16.4 1016.0 0.0
25/06:00am NW 5 6 - - - - - - - 15.9 1015.4 0.0
25/05:30am WNW 5 7 - - - - - - - 16.8 1015.1 0.0
25/05:00am NW 5 7 - - - - - - - 16.7 1014.9 0.0
25/04:30am W 4 8 - - - - - - - 17.8 1014.9 0.0
25/04:00am NW 7 10 - - - - - - - 17.7 1014.6 0.0
25/03:30am WNW 7 9 - - - - - - - 17.9 1014.7 0.0
25/03:00am WNW 6 9 - - - - - - - 17.7 1014.6 0.0
25/02:30am WNW 7 9 - - - - - - - 18.2 1014.9 0.0
25/02:00am WNW 7 9 - - - - - - - 18.4 1015.4 0.0
25/01:30am WNW 7 9 - - - - - - - 18.4 1015.8 0.0
25/01:00am W 7 8 - - - - - - - 17.8 1016.1 0.0
25/12:30am WNW 6 7 - - - - - - - 17.3 1016.2 0.0
25/12:00am NW 5 7 - - - - - - - 16.8 1016.5 0.0
 
Date/Time
EST
Wind Sea
Height
m
Swell Vis
km
Cloud Weather Temp
°C
Press
MSL
hPa
Rain since
9am
mm
Dir  Spd
kts
Gust
kts
Height
m
Period
s
Dir
24/11:30pm NW 5 7 - - - - - - - 17.1 1016.4 0.0
24/11:00pm NNW 6 8 - - - - - - - 17.4 1016.5 0.0
24/10:30pm NNW 5 7 - - - - - - - 17.6 1017.0 0.0
24/10:00pm NNW 6 8 - - - - - - - 17.9 1017.1 0.0
24/09:30pm NNW 5 6 - - - - - - - 17.8 1017.5 0.0
24/09:00pm NNW 6 7 - - - - - - - 17.9 1017.6 0.0
24/08:30pm NNW 6 6 - - - - - - - 18.0 1017.8 0.0
24/08:00pm NNW 5 6 - - - - - - - 18.5 1017.7 0.0
24/07:30pm N 5 6 - - - - - - - 18.4 1017.6 0.0
24/07:00pm NNW 4 5 - - - - - - - 18.4 1017.4 0.0
24/06:30pm N 4 5 - - - - - - - 18.8 1017.6 0.0
24/06:00pm N 4 4 - - - - - - - 19.4 1017.4 0.0
24/05:30pm N 3 4 - - - - - - - 20.0 1017.1 0.0
24/05:00pm NNE 4 6 - - - - - - - 20.8 1016.7 0.0
24/04:30pm NNE 3 6 - - - - - - - 21.7 1016.6 0.0
24/04:00pm ENE 6 9 - - - - - - - 22.1 1016.5 0.0
24/03:30pm ENE 5 6 - - - - - - - 22.8 1016.6 0.0
24/03:00pm ENE 5 7 - - - - - - - 22.5 1016.8 0.0
24/02:30pm E 5 6 - - - - - - - 22.6 1017.0 0.0
24/02:00pm ESE 5 6 - - - - - - - 23.0 1017.2 0.0
24/01:30pm NE 4 7 - - - - - - - 23.3 1017.3 0.0
24/01:00pm E 4 7 - - - - - - - 22.7 1017.6 0.0
24/12:30pm SE 6 9 - - - - - - - 22.4 1017.8 0.0
24/12:00pm ESE 8 10 - - - - - - - 22.7 1018.3 0.0
24/11:30am E 7 9 - - - - - - - 22.6 1018.5 0.0
24/11:00am E 2 5 - - - - - - - 24.2 1018.9 0.0
24/10:30am W 4 6 - - - - - - - 22.7 1019.5 0.0
24/10:00am WNW 3 5 - - - - - - - 22.8 1020.0 0.0
24/09:30am W 3 5 - - - - - - - 20.3 1020.2 0.0
24/09:00am W 4 5 - - - - - - - 19.3 1020.2 1.4
24/08:30am W 4 7 - - - - - - - 18.8 1020.2 1.4
24/08:00am WNW 3 7 - - - - - - - 17.7 1020.0 1.4
24/07:30am WNW 5 9 - - - - - - - 17.2 1019.9 1.4
24/07:00am W 5 8 - - - - - - - 16.8 1019.6 1.4
24/06:30am WNW 6 7 - - - - - - - 16.4 1019.2 1.4
24/06:00am W 7 8 - - - - - - - 16.6 1019.5 1.4
24/05:30am NNW 4 5 - - - - - - - 16.4 1019.3 1.4
24/05:00am NNW 5 5 - - - - - - - 16.6 1019.5 1.4
24/04:30am N 3 4 - - - - - - - 16.7 1019.4 1.4
24/04:00am SW 2 4 - - - - - - - 16.8 1019.4 1.4
24/03:30am W 1 4 - - - - - - - 16.7 1019.6 1.4
24/03:00am WSW 5 7 - - - - - - - 16.9 1019.7 1.4
24/02:30am WSW 5 7 - - - - - - - 17.1 1019.9 1.4
24/02:00am W 5 8 - - - - - - - 17.2 1020.2 1.4
24/01:30am W 5 7 - - - - - - - 17.3 1020.5 1.4
24/01:00am WNW 5 8 - - - - - - - 17.4 1021.0 1.2
24/12:30am WNW 7 10 - - - - - - - 17.3 1021.1 1.0
24/12:00am WNW 6 9 - - - - - - Recent precip. 17.8 1021.1 1.0
 
Date/Time
EST
Wind Sea
Height
m
Swell Vis
km
Cloud Weather Temp
°C
Press
MSL
hPa
Rain since
9am
mm
Dir  Spd
kts
Gust
kts
Height
m
Period
s
Dir
23/11:30pm WSW 6 9 - - - - - - - 18.3 1021.0 0.8
23/11:00pm SSW 6 9 - - - - - - - 18.4 1021.2 0.0
23/10:30pm WSW 7 9 - - - - - - - 18.4 1021.3 0.0
23/10:00pm WSW 7 9 - - - - - - - 18.5 1021.4 0.0
23/09:30pm WSW 8 9 - - - - - - - 18.3 1021.6 0.0
23/09:00pm WSW 7 9 - - - - - - - 18.8 1021.6 0.0
23/08:30pm W 7 8 - - - - - - - 18.8 1021.6 0.0
23/08:00pm WSW 8 10 - - - - - - - 19.2 1021.5 0.0
23/07:30pm WNW 3 4 - - - - - - - 20.2 1021.5 0.0
23/07:00pm E 3 5 - - - - - - - 20.8 1021.4 0.0
23/06:30pm ESE 6 9 - - - - - - - 20.9 1021.3 0.0
23/06:00pm ESE 6 9 - - - - - - - 21.0 1021.1 0.0
23/05:30pm ESE 7 9 - - - - - - - 21.0 1021.0 0.0
23/05:00pm ESE 7 10 - - - - - - - 21.6 1021.0 0.0
23/04:30pm ESE 7 9 - - - - - - - 21.4 1020.9 0.0
23/04:00pm ESE 8 11 - - - - - - - 22.5 1021.0 0.0
23/03:30pm ESE 9 13 - - - - - - - 23.0 1021.2 0.0
23/03:00pm SE 10 14 - - - - - - - 23.2 1021.5 0.0
23/02:30pm SE 9 13 - - - - - - - 24.1 1021.8 0.0
23/02:00pm ESE 9 13 - - - - - - - 23.5 1022.0 0.0
23/01:30pm SE 9 14 - - - - - - - 24.0 1022.1 0.0
23/01:00pm SE 10 15 - - - - - - - 23.3 1022.3 0.0
23/12:30pm SE 11 15 - - - - - - - 24.2 1022.7 0.0
23/12:00pm E 6 9 - - - - - - - 22.7 1023.4 0.0
23/11:30am E 14 20 - - - - - - - 21.5 1023.7 0.0
23/11:00am ESE 13 18 - - - - - - - 22.3 1023.8 0.0
23/10:30am SE 9 17 - - - - - - - 23.4 1024.0 0.0
23/10:00am S 6 11 - - - - - - - 21.8 1024.4 0.0
23/09:30am SW 5 8 - - - - - - - 20.8 1024.4 0.0
23/09:00am SW 6 9 - - - - - - - 20.3 1024.6 6.6
23/08:30am SW 5 8 - - - - - - - 19.2 1024.5 6.6
23/08:00am SW 6 9 - - - - - - - 17.9 1024.3 6.6
23/07:30am SW 6 8 - - - - - - - 17.8 1024.0 6.6
23/07:00am SW 7 9 - - - - - - - 17.4 1023.6 6.6
23/06:30am SW 6 10 - - - - - - - 17.2 1023.3 6.6
23/06:00am WSW 7 8 - - - - - - Recent precip. 17.0 1023.0 6.6
23/05:30am SW 7 10 - - - - - - - 17.1 1023.0 6.6
23/05:00am SW 7 11 - - - - - - - 17.0 1022.9 5.6
23/04:30am WSW 7 9 - - - - - - - 16.7 1022.5 4.8
23/04:00am WSW 7 9 - - - - - - - 16.6 1022.3 4.8
23/03:30am SW 5 8 - - - - - - - 16.8 1022.7 4.6
23/03:00am WSW 7 9 - - - - - - Recent precip. 16.6 1022.3 3.8
23/02:30am WSW 6 9 - - - - - - - 16.8 1022.7 3.8
23/02:00am WSW 6 9 - - - - - - - 16.7 1022.8 3.6
23/01:30am SW 6 10 - - - - - - - 17.0 1023.1 3.6
23/01:00am WSW 8 11 - - - - - - - 17.1 1023.4 3.6
23/12:30am SW 7 12 - - - - - - - 17.3 1023.6 3.6
23/12:00am WSW 8 11 - - - - - - - 17.5 1023.6 3.4
 
Date/Time
EST
Wind Sea
Height
m
Swell Vis
km
Cloud Weather Temp
°C
Press
MSL
hPa
Rain since
9am
mm
Dir  Spd
kts
Gust
kts
Height
m
Period
s
Dir
22/11:30pm SW 6 9 - - - - - - - 17.8 1023.8 3.4
22/11:00pm SSW 7 10 - - - - - - - 18.2 1023.9 3.4
22/10:30pm SSE 7 11 - - - - - - - 18.6 1024.2 3.4

Other formats

Comma delimited format used in spreadsheet applications
http://www.bom.gov.au/fwo/IDN60701/IDN60701.94598.axf

JavaScript Object Notation format (JSON) in row-major order
http://www.bom.gov.au/fwo/IDN60701/IDN60701.94598.json

Data quality

Most of these data are generated automatically and are frequently updated. Quality checks on data are not normally performed. It is possible for incorrect values to appear. Refer to information at About Latest Weather Observations and please check the disclaimer before using these data.